sensor_id;sensor_type;location;lat;lon;timestamp;P1;durP1;ratioP1;P2;durP2;ratioP2
17596;SDS011;8917;50.942;6.946;2023-07-24T00:01:00;3.90;;;3.00;;
17596;SDS011;8917;50.942;6.946;2023-07-24T00:03:29;5.80;;;3.28;;
17596;SDS011;8917;50.942;6.946;2023-07-24T00:05:57;3.65;;;3.13;;
17596;SDS011;8917;50.942;6.946;2023-07-24T00:08:25;3.72;;;3.00;;
17596;SDS011;8917;50.942;6.946;2023-07-24T00:10:52;3.35;;;2.50;;
17596;SDS011;8917;50.942;6.946;2023-07-24T00:13:19;3.53;;;2.72;;
17596;SDS011;8917;50.942;6.946;2023-07-24T00:15:46;4.75;;;3.08;;
17596;SDS011;8917;50.942;6.946;2023-07-24T00:18:14;3.55;;;2.97;;
17596;SDS011;8917;50.942;6.946;2023-07-24T00:20:43;3.05;;;2.75;;
17596;SDS011;8917;50.942;6.946;2023-07-24T00:23:10;5.05;;;2.60;;
17596;SDS011;8917;50.942;6.946;2023-07-24T00:25:37;3.08;;;2.75;;
17596;SDS011;8917;50.942;6.946;2023-07-24T00:28:04;3.05;;;2.65;;
17596;SDS011;8917;50.942;6.946;2023-07-24T00:30:31;2.65;;;2.40;;
17596;SDS011;8917;50.942;6.946;2023-07-24T00:32:59;3.35;;;2.60;;
17596;SDS011;8917;50.942;6.946;2023-07-24T00:35:26;2.97;;;2.30;;
17596;SDS011;8917;50.942;6.946;2023-07-24T00:37:54;3.40;;;2.55;;
17596;SDS011;8917;50.942;6.946;2023-07-24T00:40:22;4.38;;;2.90;;
17596;SDS011;8917;50.942;6.946;2023-07-24T00:42:49;4.22;;;2.78;;
17596;SDS011;8917;50.942;6.946;2023-07-24T00:45:16;3.05;;;2.83;;
17596;SDS011;8917;50.942;6.946;2023-07-24T00:47:43;4.15;;;2.83;;
17596;SDS011;8917;50.942;6.946;2023-07-24T00:50:11;3.00;;;2.70;;
17596;SDS011;8917;50.942;6.946;2023-07-24T00:52:38;2.92;;;2.60;;
17596;SDS011;8917;50.942;6.946;2023-07-24T00:55:07;7.15;;;3.00;;
17596;SDS011;8917;50.942;6.946;2023-07-24T00:57:35;2.90;;;2.60;;
17596;SDS011;8917;50.942;6.946;2023-07-24T01:00:03;4.40;;;2.80;;
17596;SDS011;8917;50.942;6.946;2023-07-24T01:02:30;3.85;;;2.53;;
17596;SDS011;8917;50.942;6.946;2023-07-24T01:04:58;3.55;;;3.05;;
17596;SDS011;8917;50.942;6.946;2023-07-24T01:07:25;3.92;;;3.03;;
17596;SDS011;8917;50.942;6.946;2023-07-24T01:09:52;3.45;;;2.63;;
17596;SDS011;8917;50.942;6.946;2023-07-24T01:12:22;4.55;;;3.42;;
17596;SDS011;8917;50.942;6.946;2023-07-24T01:14:54;4.50;;;3.05;;
17596;SDS011;8917;50.942;6.946;2023-07-24T01:17:23;3.17;;;2.88;;
17596;SDS011;8917;50.942;6.946;2023-07-24T01:19:52;3.65;;;3.25;;
17596;SDS011;8917;50.942;6.946;2023-07-24T01:22:24;3.65;;;2.53;;
17596;SDS011;8917;50.942;6.946;2023-07-24T01:24:56;3.63;;;2.70;;
17596;SDS011;8917;50.942;6.946;2023-07-24T01:27:28;5.55;;;3.60;;
17596;SDS011;8917;50.942;6.946;2023-07-24T01:29:56;3.67;;;2.97;;
17596;SDS011;8917;50.942;6.946;2023-07-24T01:32:23;3.17;;;2.55;;
17596;SDS011;8917;50.942;6.946;2023-07-24T01:34:51;4.15;;;3.20;;
17596;SDS011;8917;50.942;6.946;2023-07-24T01:37:18;4.45;;;3.00;;
17596;SDS011;8917;50.942;6.946;2023-07-24T01:39:47;2.63;;;2.42;;
17596;SDS011;8917;50.942;6.946;2023-07-24T01:42:15;4.10;;;2.70;;
17596;SDS011;8917;50.942;6.946;2023-07-24T01:44:43;4.20;;;2.75;;
17596;SDS011;8917;50.942;6.946;2023-07-24T01:47:11;5.38;;;2.92;;
17596;SDS011;8917;50.942;6.946;2023-07-24T01:49:38;4.97;;;3.20;;
17596;SDS011;8917;50.942;6.946;2023-07-24T01:52:05;4.38;;;2.70;;
17596;SDS011;8917;50.942;6.946;2023-07-24T01:54:32;2.80;;;2.58;;
17596;SDS011;8917;50.942;6.946;2023-07-24T01:57:00;4.43;;;2.80;;
17596;SDS011;8917;50.942;6.946;2023-07-24T01:59:27;5.97;;;2.72;;
17596;SDS011;8917;50.942;6.946;2023-07-24T02:01:55;5.15;;;2.63;;
17596;SDS011;8917;50.942;6.946;2023-07-24T02:04:22;5.63;;;2.90;;
17596;SDS011;8917;50.942;6.946;2023-07-24T02:06:50;3.17;;;2.88;;
17596;SDS011;8917;50.942;6.946;2023-07-24T02:09:17;3.67;;;2.95;;
17596;SDS011;8917;50.942;6.946;2023-07-24T02:11:45;3.30;;;2.75;;
17596;SDS011;8917;50.942;6.946;2023-07-24T02:14:12;4.80;;;3.03;;
17596;SDS011;8917;50.942;6.946;2023-07-24T02:16:41;3.78;;;2.88;;
17596;SDS011;8917;50.942;6.946;2023-07-24T02:19:10;4.30;;;2.97;;
17596;SDS011;8917;50.942;6.946;2023-07-24T02:21:37;3.65;;;2.78;;
17596;SDS011;8917;50.942;6.946;2023-07-24T02:24:05;4.78;;;3.00;;
17596;SDS011;8917;50.942;6.946;2023-07-24T02:26:32;4.70;;;3.00;;
17596;SDS011;8917;50.942;6.946;2023-07-24T02:29:00;3.85;;;2.97;;
17596;SDS011;8917;50.942;6.946;2023-07-24T02:31:27;4.85;;;3.20;;
17596;SDS011;8917;50.942;6.946;2023-07-24T02:33:54;4.55;;;3.20;;
17596;SDS011;8917;50.942;6.946;2023-07-24T02:36:23;4.45;;;2.83;;
17596;SDS011;8917;50.942;6.946;2023-07-24T02:38:50;5.47;;;3.15;;
17596;SDS011;8917;50.942;6.946;2023-07-24T02:41:17;4.70;;;3.20;;
17596;SDS011;8917;50.942;6.946;2023-07-24T02:43:44;4.20;;;2.63;;
17596;SDS011;8917;50.942;6.946;2023-07-24T02:46:12;4.07;;;2.90;;
17596;SDS011;8917;50.942;6.946;2023-07-24T02:48:39;4.90;;;3.15;;
17596;SDS011;8917;50.942;6.946;2023-07-24T02:51:06;5.40;;;3.03;;
17596;SDS011;8917;50.942;6.946;2023-07-24T02:53:35;4.63;;;3.30;;
17596;SDS011;8917;50.942;6.946;2023-07-24T02:56:02;3.40;;;2.85;;
17596;SDS011;8917;50.942;6.946;2023-07-24T02:58:29;6.20;;;3.00;;
17596;SDS011;8917;50.942;6.946;2023-07-24T03:01:04;6.10;;;2.90;;
17596;SDS011;8917;50.942;6.946;2023-07-24T03:03:31;4.85;;;3.00;;
17596;SDS011;8917;50.942;6.946;2023-07-24T03:05:59;4.15;;;3.20;;
17596;SDS011;8917;50.942;6.946;2023-07-24T03:08:28;5.90;;;3.28;;
17596;SDS011;8917;50.942;6.946;2023-07-24T03:10:57;4.10;;;3.08;;
17596;SDS011;8917;50.942;6.946;2023-07-24T03:13:25;4.75;;;2.95;;
17596;SDS011;8917;50.942;6.946;2023-07-24T03:15:52;5.57;;;3.00;;
17596;SDS011;8917;50.942;6.946;2023-07-24T03:18:20;5.13;;;3.10;;
17596;SDS011;8917;50.942;6.946;2023-07-24T03:20:47;5.43;;;3.22;;
17596;SDS011;8917;50.942;6.946;2023-07-24T03:23:15;5.40;;;3.45;;
17596;SDS011;8917;50.942;6.946;2023-07-24T03:25:42;8.15;;;3.63;;
17596;SDS011;8917;50.942;6.946;2023-07-24T03:28:11;5.43;;;3.30;;
17596;SDS011;8917;50.942;6.946;2023-07-24T03:30:38;3.25;;;2.95;;
17596;SDS011;8917;50.942;6.946;2023-07-24T03:33:05;3.90;;;3.50;;
17596;SDS011;8917;50.942;6.946;2023-07-24T03:35:33;4.80;;;3.40;;
17596;SDS011;8917;50.942;6.946;2023-07-24T03:38:00;4.70;;;3.40;;
17596;SDS011;8917;50.942;6.946;2023-07-24T03:40:27;4.15;;;3.13;;
17596;SDS011;8917;50.942;6.946;2023-07-24T03:42:54;4.90;;;3.05;;
17596;SDS011;8917;50.942;6.946;2023-07-24T03:45:23;4.13;;;3.08;;
17596;SDS011;8917;50.942;6.946;2023-07-24T03:47:50;4.93;;;3.30;;
17596;SDS011;8917;50.942;6.946;2023-07-24T03:50:18;4.75;;;3.10;;
17596;SDS011;8917;50.942;6.946;2023-07-24T03:52:45;4.45;;;3.17;;
17596;SDS011;8917;50.942;6.946;2023-07-24T03:55:12;4.47;;;3.03;;
17596;SDS011;8917;50.942;6.946;2023-07-24T03:57:39;3.35;;;3.00;;
17596;SDS011;8917;50.942;6.946;2023-07-24T04:00:07;4.22;;;3.05;;
17596;SDS011;8917;50.942;6.946;2023-07-24T04:02:36;6.45;;;3.13;;
17596;SDS011;8917;50.942;6.946;2023-07-24T04:05:04;3.65;;;2.97;;
17596;SDS011;8917;50.942;6.946;2023-07-24T04:07:33;3.75;;;3.42;;
17596;SDS011;8917;50.942;6.946;2023-07-24T04:10:02;6.35;;;3.40;;
17596;SDS011;8917;50.942;6.946;2023-07-24T04:12:29;4.30;;;3.30;;
17596;SDS011;8917;50.942;6.946;2023-07-24T04:14:57;5.45;;;3.35;;
17596;SDS011;8917;50.942;6.946;2023-07-24T04:17:24;4.28;;;3.38;;
17596;SDS011;8917;50.942;6.946;2023-07-24T04:19:52;3.72;;;3.03;;
17596;SDS011;8917;50.942;6.946;2023-07-24T04:22:20;4.57;;;2.85;;
17596;SDS011;8917;50.942;6.946;2023-07-24T04:24:47;5.25;;;3.03;;
17596;SDS011;8917;50.942;6.946;2023-07-24T04:27:14;4.22;;;3.00;;
17596;SDS011;8917;50.942;6.946;2023-07-24T04:29:41;7.38;;;3.28;;
17596;SDS011;8917;50.942;6.946;2023-07-24T04:32:09;5.47;;;3.50;;
17596;SDS011;8917;50.942;6.946;2023-07-24T04:34:36;4.18;;;3.35;;
17596;SDS011;8917;50.942;6.946;2023-07-24T04:37:05;4.60;;;3.17;;
17596;SDS011;8917;50.942;6.946;2023-07-24T04:39:32;3.95;;;3.15;;
17596;SDS011;8917;50.942;6.946;2023-07-24T04:42:00;6.28;;;3.28;;
17596;SDS011;8917;50.942;6.946;2023-07-24T04:44:27;4.68;;;3.17;;
17596;SDS011;8917;50.942;6.946;2023-07-24T04:46:54;3.78;;;2.97;;
17596;SDS011;8917;50.942;6.946;2023-07-24T04:49:21;4.38;;;3.88;;
17596;SDS011;8917;50.942;6.946;2023-07-24T04:51:49;6.82;;;3.38;;
17596;SDS011;8917;50.942;6.946;2023-07-24T04:54:18;3.92;;;3.47;;
17596;SDS011;8917;50.942;6.946;2023-07-24T04:56:45;4.35;;;3.38;;
17596;SDS011;8917;50.942;6.946;2023-07-24T04:59:12;4.30;;;3.55;;
17596;SDS011;8917;50.942;6.946;2023-07-24T05:01:39;4.95;;;3.90;;
17596;SDS011;8917;50.942;6.946;2023-07-24T05:04:07;4.05;;;3.42;;
17596;SDS011;8917;50.942;6.946;2023-07-24T05:06:34;4.22;;;3.50;;
17596;SDS011;8917;50.942;6.946;2023-07-24T05:09:02;4.60;;;3.22;;
17596;SDS011;8917;50.942;6.946;2023-07-24T05:11:31;3.50;;;3.15;;
17596;SDS011;8917;50.942;6.946;2023-07-24T05:13:58;5.72;;;3.88;;
17596;SDS011;8917;50.942;6.946;2023-07-24T05:16:26;5.53;;;4.18;;
17596;SDS011;8917;50.942;6.946;2023-07-24T05:18:53;4.05;;;3.65;;
17596;SDS011;8917;50.942;6.946;2023-07-24T05:21:20;3.60;;;3.15;;
17596;SDS011;8917;50.942;6.946;2023-07-24T05:23:48;5.72;;;3.50;;
17596;SDS011;8917;50.942;6.946;2023-07-24T05:26:15;5.53;;;3.50;;
17596;SDS011;8917;50.942;6.946;2023-07-24T05:28:44;5.30;;;3.47;;
17596;SDS011;8917;50.942;6.946;2023-07-24T05:31:11;6.22;;;3.97;;
17596;SDS011;8917;50.942;6.946;2023-07-24T05:33:38;4.78;;;3.70;;
17596;SDS011;8917;50.942;6.946;2023-07-24T05:36:06;6.03;;;4.18;;
17596;SDS011;8917;50.942;6.946;2023-07-24T05:38:33;3.90;;;3.50;;
17596;SDS011;8917;50.942;6.946;2023-07-24T05:41:01;6.53;;;3.80;;
17596;SDS011;8917;50.942;6.946;2023-07-24T05:43:30;5.32;;;3.70;;
17596;SDS011;8917;50.942;6.946;2023-07-24T05:46:00;5.47;;;4.43;;
17596;SDS011;8917;50.942;6.946;2023-07-24T05:48:27;6.97;;;4.20;;
17596;SDS011;8917;50.942;6.946;2023-07-24T05:50:54;5.80;;;3.90;;
17596;SDS011;8917;50.942;6.946;2023-07-24T05:53:21;9.40;;;3.90;;
17596;SDS011;8917;50.942;6.946;2023-07-24T05:55:55;5.03;;;4.38;;
17596;SDS011;8917;50.942;6.946;2023-07-24T05:58:22;4.95;;;4.28;;
17596;SDS011;8917;50.942;6.946;2023-07-24T06:00:49;6.07;;;3.97;;
17596;SDS011;8917;50.942;6.946;2023-07-24T06:03:18;7.05;;;4.07;;
17596;SDS011;8917;50.942;6.946;2023-07-24T06:05:45;6.78;;;4.47;;
17596;SDS011;8917;50.942;6.946;2023-07-24T06:08:12;6.93;;;3.70;;
17596;SDS011;8917;50.942;6.946;2023-07-24T06:10:40;8.95;;;4.13;;
17596;SDS011;8917;50.942;6.946;2023-07-24T06:13:07;7.57;;;4.10;;
17596;SDS011;8917;50.942;6.946;2023-07-24T06:15:34;6.40;;;4.00;;
17596;SDS011;8917;50.942;6.946;2023-07-24T06:18:01;9.00;;;4.88;;
17596;SDS011;8917;50.942;6.946;2023-07-24T06:20:30;5.65;;;4.22;;
17596;SDS011;8917;50.942;6.946;2023-07-24T06:22:57;7.72;;;4.45;;
17596;SDS011;8917;50.942;6.946;2023-07-24T06:25:24;8.80;;;4.40;;
17596;SDS011;8917;50.942;6.946;2023-07-24T06:27:52;5.65;;;4.40;;
17596;SDS011;8917;50.942;6.946;2023-07-24T06:30:19;6.22;;;3.83;;
17596;SDS011;8917;50.942;6.946;2023-07-24T06:32:46;7.38;;;4.40;;
17596;SDS011;8917;50.942;6.946;2023-07-24T06:35:14;5.68;;;4.30;;
17596;SDS011;8917;50.942;6.946;2023-07-24T06:37:42;7.53;;;4.00;;
17596;SDS011;8917;50.942;6.946;2023-07-24T06:40:10;8.32;;;4.90;;
17596;SDS011;8917;50.942;6.946;2023-07-24T06:42:37;5.90;;;4.43;;
17596;SDS011;8917;50.942;6.946;2023-07-24T06:45:06;6.15;;;4.30;;
17596;SDS011;8917;50.942;6.946;2023-07-24T06:47:33;8.70;;;4.25;;
17596;SDS011;8917;50.942;6.946;2023-07-24T06:50:00;10.25;;;4.25;;
17596;SDS011;8917;50.942;6.946;2023-07-24T06:52:29;6.13;;;3.72;;
17596;SDS011;8917;50.942;6.946;2023-07-24T06:55:00;5.95;;;4.05;;
17596;SDS011;8917;50.942;6.946;2023-07-24T06:57:27;5.53;;;3.85;;
17596;SDS011;8917;50.942;6.946;2023-07-24T06:59:54;6.28;;;3.80;;
17596;SDS011;8917;50.942;6.946;2023-07-24T07:02:21;5.38;;;3.28;;
17596;SDS011;8917;50.942;6.946;2023-07-24T07:04:49;5.93;;;4.35;;
17596;SDS011;8917;50.942;6.946;2023-07-24T07:07:16;6.82;;;3.40;;
17596;SDS011;8917;50.942;6.946;2023-07-24T07:09:44;4.18;;;3.40;;
17596;SDS011;8917;50.942;6.946;2023-07-24T07:12:12;6.63;;;3.58;;
17596;SDS011;8917;50.942;6.946;2023-07-24T07:14:39;4.43;;;3.47;;
17596;SDS011;8917;50.942;6.946;2023-07-24T07:17:07;3.70;;;3.20;;
17596;SDS011;8917;50.942;6.946;2023-07-24T07:19:34;5.05;;;3.28;;
17596;SDS011;8917;50.942;6.946;2023-07-24T07:22:02;3.60;;;2.78;;
17596;SDS011;8917;50.942;6.946;2023-07-24T07:24:30;5.05;;;3.30;;
17596;SDS011;8917;50.942;6.946;2023-07-24T07:26:57;4.80;;;3.15;;
17596;SDS011;8917;50.942;6.946;2023-07-24T07:29:26;7.05;;;3.70;;
17596;SDS011;8917;50.942;6.946;2023-07-24T07:31:53;4.28;;;3.15;;
17596;SDS011;8917;50.942;6.946;2023-07-24T07:34:21;6.22;;;3.40;;
17596;SDS011;8917;50.942;6.946;2023-07-24T07:36:48;3.53;;;3.20;;
17596;SDS011;8917;50.942;6.946;2023-07-24T07:39:16;4.68;;;3.80;;
17596;SDS011;8917;50.942;6.946;2023-07-24T07:41:43;5.35;;;3.35;;
17596;SDS011;8917;50.942;6.946;2023-07-24T07:44:10;4.82;;;3.30;;
17596;SDS011;8917;50.942;6.946;2023-07-24T07:46:39;6.03;;;3.63;;
17596;SDS011;8917;50.942;6.946;2023-07-24T07:49:06;4.40;;;3.35;;
17596;SDS011;8917;50.942;6.946;2023-07-24T07:51:34;3.78;;;3.17;;
17596;SDS011;8917;50.942;6.946;2023-07-24T07:54:01;3.65;;;3.30;;
17596;SDS011;8917;50.942;6.946;2023-07-24T07:56:28;6.53;;;3.10;;
17596;SDS011;8917;50.942;6.946;2023-07-24T07:58:56;4.50;;;3.08;;
17596;SDS011;8917;50.942;6.946;2023-07-24T08:01:23;5.90;;;3.65;;
17596;SDS011;8917;50.942;6.946;2023-07-24T08:03:52;5.00;;;3.28;;
17596;SDS011;8917;50.942;6.946;2023-07-24T08:06:19;5.32;;;3.47;;
17596;SDS011;8917;50.942;6.946;2023-07-24T08:08:47;4.60;;;3.25;;
17596;SDS011;8917;50.942;6.946;2023-07-24T08:11:14;4.53;;;3.50;;
17596;SDS011;8917;50.942;6.946;2023-07-24T08:13:41;3.85;;;3.38;;
17596;SDS011;8917;50.942;6.946;2023-07-24T08:16:12;3.67;;;3.22;;
17596;SDS011;8917;50.942;6.946;2023-07-24T08:18:43;6.13;;;3.45;;
17596;SDS011;8917;50.942;6.946;2023-07-24T08:21:12;5.03;;;3.78;;
17596;SDS011;8917;50.942;6.946;2023-07-24T08:23:39;5.95;;;3.75;;
17596;SDS011;8917;50.942;6.946;2023-07-24T08:26:07;5.53;;;3.65;;
17596;SDS011;8917;50.942;6.946;2023-07-24T08:28:34;4.10;;;3.70;;
17596;SDS011;8917;50.942;6.946;2023-07-24T08:31:01;6.10;;;4.03;;
17596;SDS011;8917;50.942;6.946;2023-07-24T08:33:29;5.60;;;3.53;;
17596;SDS011;8917;50.942;6.946;2023-07-24T08:36:00;5.55;;;3.67;;
17596;SDS011;8917;50.942;6.946;2023-07-24T08:38:29;6.22;;;3.67;;
17596;SDS011;8917;50.942;6.946;2023-07-24T08:41:00;5.22;;;3.47;;
17596;SDS011;8917;50.942;6.946;2023-07-24T08:43:27;4.75;;;3.78;;
17596;SDS011;8917;50.942;6.946;2023-07-24T08:45:56;5.43;;;3.53;;
17596;SDS011;8917;50.942;6.946;2023-07-24T08:48:24;4.35;;;3.53;;
17596;SDS011;8917;50.942;6.946;2023-07-24T08:50:51;5.40;;;3.60;;
17596;SDS011;8917;50.942;6.946;2023-07-24T08:53:19;4.05;;;3.67;;
17596;SDS011;8917;50.942;6.946;2023-07-24T08:55:49;4.45;;;3.60;;
17596;SDS011;8917;50.942;6.946;2023-07-24T08:58:19;5.25;;;3.20;;
17596;SDS011;8917;50.942;6.946;2023-07-24T09:00:47;7.80;;;5.13;;
17596;SDS011;8917;50.942;6.946;2023-07-24T09:03:16;13.85;;;9.23;;
17596;SDS011;8917;50.942;6.946;2023-07-24T09:05:43;4.50;;;3.78;;
17596;SDS011;8917;50.942;6.946;2023-07-24T09:08:10;6.35;;;3.88;;
17596;SDS011;8917;50.942;6.946;2023-07-24T09:10:37;6.90;;;4.18;;
17596;SDS011;8917;50.942;6.946;2023-07-24T09:13:06;4.65;;;3.90;;
17596;SDS011;8917;50.942;6.946;2023-07-24T09:15:40;5.10;;;3.65;;
17596;SDS011;8917;50.942;6.946;2023-07-24T09:18:07;7.07;;;3.47;;
17596;SDS011;8917;50.942;6.946;2023-07-24T09:20:38;8.60;;;3.95;;
17596;SDS011;8917;50.942;6.946;2023-07-24T09:23:06;4.32;;;3.55;;
17596;SDS011;8917;50.942;6.946;2023-07-24T09:25:35;5.07;;;3.25;;
17596;SDS011;8917;50.942;6.946;2023-07-24T09:28:10;4.95;;;3.35;;
17596;SDS011;8917;50.942;6.946;2023-07-24T09:30:37;7.75;;;3.78;;
17596;SDS011;8917;50.942;6.946;2023-07-24T09:33:05;4.35;;;3.55;;
17596;SDS011;8917;50.942;6.946;2023-07-24T09:35:32;3.28;;;2.90;;
17596;SDS011;8917;50.942;6.946;2023-07-24T09:38:04;3.92;;;2.90;;
17596;SDS011;8917;50.942;6.946;2023-07-24T09:40:38;3.58;;;3.10;;
17596;SDS011;8917;50.942;6.946;2023-07-24T09:43:17;4.63;;;3.13;;
17596;SDS011;8917;50.942;6.946;2023-07-24T09:45:45;4.50;;;3.13;;
17596;SDS011;8917;50.942;6.946;2023-07-24T09:48:13;4.07;;;3.13;;
17596;SDS011;8917;50.942;6.946;2023-07-24T09:50:40;5.25;;;3.60;;
17596;SDS011;8917;50.942;6.946;2023-07-24T09:53:09;4.18;;;3.20;;
17596;SDS011;8917;50.942;6.946;2023-07-24T09:55:41;5.35;;;2.92;;
17596;SDS011;8917;50.942;6.946;2023-07-24T09:58:10;6.95;;;3.20;;
17596;SDS011;8917;50.942;6.946;2023-07-24T10:00:39;3.97;;;3.03;;
17596;SDS011;8917;50.942;6.946;2023-07-24T10:03:07;7.00;;;3.85;;
17596;SDS011;8917;50.942;6.946;2023-07-24T10:05:34;10.55;;;3.50;;
17596;SDS011;8917;50.942;6.946;2023-07-24T10:08:01;5.25;;;3.72;;
17596;SDS011;8917;50.942;6.946;2023-07-24T10:10:29;4.75;;;3.25;;
17596;SDS011;8917;50.942;6.946;2023-07-24T10:12:57;4.97;;;3.65;;
17596;SDS011;8917;50.942;6.946;2023-07-24T10:15:24;5.43;;;3.38;;
17596;SDS011;8917;50.942;6.946;2023-07-24T10:18:00;3.80;;;2.97;;
17596;SDS011;8917;50.942;6.946;2023-07-24T10:20:32;7.03;;;4.45;;
17596;SDS011;8917;50.942;6.946;2023-07-24T10:23:00;5.03;;;3.25;;
17596;SDS011;8917;50.942;6.946;2023-07-24T10:25:30;4.55;;;3.10;;
17596;SDS011;8917;50.942;6.946;2023-07-24T10:28:02;4.22;;;2.78;;
17596;SDS011;8917;50.942;6.946;2023-07-24T10:30:32;3.83;;;3.10;;
17596;SDS011;8917;50.942;6.946;2023-07-24T10:33:05;5.95;;;3.03;;
17596;SDS011;8917;50.942;6.946;2023-07-24T10:35:36;3.53;;;2.95;;
17596;SDS011;8917;50.942;6.946;2023-07-24T10:38:03;5.22;;;4.32;;
17596;SDS011;8917;50.942;6.946;2023-07-24T10:40:31;4.00;;;3.10;;
17596;SDS011;8917;50.942;6.946;2023-07-24T10:42:59;3.53;;;3.20;;
17596;SDS011;8917;50.942;6.946;2023-07-24T10:45:37;5.13;;;3.13;;
17596;SDS011;8917;50.942;6.946;2023-07-24T10:48:06;4.57;;;2.80;;
17596;SDS011;8917;50.942;6.946;2023-07-24T10:50:37;3.38;;;2.83;;
17596;SDS011;8917;50.942;6.946;2023-07-24T10:53:04;3.40;;;3.00;;
17596;SDS011;8917;50.942;6.946;2023-07-24T10:55:31;4.10;;;3.63;;
17596;SDS011;8917;50.942;6.946;2023-07-24T10:57:58;3.90;;;3.30;;
17596;SDS011;8917;50.942;6.946;2023-07-24T11:00:26;4.68;;;3.30;;
17596;SDS011;8917;50.942;6.946;2023-07-24T11:02:53;4.90;;;3.08;;
17596;SDS011;8917;50.942;6.946;2023-07-24T11:05:22;6.15;;;3.65;;
17596;SDS011;8917;50.942;6.946;2023-07-24T11:07:50;6.95;;;3.53;;
17596;SDS011;8917;50.942;6.946;2023-07-24T11:10:17;6.03;;;3.20;;
17596;SDS011;8917;50.942;6.946;2023-07-24T11:12:45;5.70;;;3.25;;
17596;SDS011;8917;50.942;6.946;2023-07-24T11:15:13;3.60;;;3.10;;
17596;SDS011;8917;50.942;6.946;2023-07-24T11:17:41;3.67;;;3.05;;
17596;SDS011;8917;50.942;6.946;2023-07-24T11:20:09;3.42;;;3.13;;
17596;SDS011;8917;50.942;6.946;2023-07-24T11:22:39;5.50;;;3.33;;
17596;SDS011;8917;50.942;6.946;2023-07-24T11:25:07;6.07;;;3.60;;
17596;SDS011;8917;50.942;6.946;2023-07-24T11:27:37;5.05;;;4.05;;
17596;SDS011;8917;50.942;6.946;2023-07-24T11:30:06;4.13;;;3.22;;
17596;SDS011;8917;50.942;6.946;2023-07-24T11:32:34;4.45;;;3.47;;
17596;SDS011;8917;50.942;6.946;2023-07-24T11:35:01;4.80;;;3.25;;
17596;SDS011;8917;50.942;6.946;2023-07-24T11:37:29;4.53;;;3.30;;
17596;SDS011;8917;50.942;6.946;2023-07-24T11:39:59;4.28;;;3.30;;
17596;SDS011;8917;50.942;6.946;2023-07-24T11:42:29;5.63;;;3.47;;
17596;SDS011;8917;50.942;6.946;2023-07-24T11:44:59;19.95;;;5.45;;
17596;SDS011;8917;50.942;6.946;2023-07-24T11:47:27;11.35;;;4.55;;
17596;SDS011;8917;50.942;6.946;2023-07-24T11:49:56;6.82;;;3.28;;
17596;SDS011;8917;50.942;6.946;2023-07-24T11:52:24;5.85;;;3.33;;
17596;SDS011;8917;50.942;6.946;2023-07-24T11:54:59;6.70;;;3.40;;
17596;SDS011;8917;50.942;6.946;2023-07-24T11:57:28;4.95;;;3.20;;
17596;SDS011;8917;50.942;6.946;2023-07-24T11:59:56;4.60;;;2.72;;
17596;SDS011;8917;50.942;6.946;2023-07-24T12:02:25;7.38;;;3.50;;
17596;SDS011;8917;50.942;6.946;2023-07-24T12:04:53;10.32;;;3.72;;
17596;SDS011;8917;50.942;6.946;2023-07-24T12:07:21;4.68;;;2.40;;
17596;SDS011;8917;50.942;6.946;2023-07-24T12:09:50;4.90;;;2.33;;
17596;SDS011;8917;50.942;6.946;2023-07-24T12:12:19;2.38;;;1.95;;
17596;SDS011;8917;50.942;6.946;2023-07-24T12:14:46;3.15;;;2.08;;
17596;SDS011;8917;50.942;6.946;2023-07-24T12:17:17;3.40;;;1.90;;
17596;SDS011;8917;50.942;6.946;2023-07-24T12:19:45;3.83;;;2.85;;
17596;SDS011;8917;50.942;6.946;2023-07-24T12:22:13;2.60;;;2.40;;
17596;SDS011;8917;50.942;6.946;2023-07-24T12:24:40;3.08;;;2.30;;
17596;SDS011;8917;50.942;6.946;2023-07-24T12:27:08;4.28;;;2.10;;
17596;SDS011;8917;50.942;6.946;2023-07-24T12:29:36;4.47;;;2.13;;
17596;SDS011;8917;50.942;6.946;2023-07-24T12:32:04;2.42;;;2.20;;
17596;SDS011;8917;50.942;6.946;2023-07-24T12:34:31;2.55;;;2.15;;
17596;SDS011;8917;50.942;6.946;2023-07-24T12:36:59;4.78;;;2.20;;
17596;SDS011;8917;50.942;6.946;2023-07-24T12:39:26;5.05;;;2.65;;
17596;SDS011;8917;50.942;6.946;2023-07-24T12:41:53;2.65;;;2.42;;
17596;SDS011;8917;50.942;6.946;2023-07-24T12:44:20;3.63;;;2.63;;
17596;SDS011;8917;50.942;6.946;2023-07-24T12:46:49;3.08;;;2.75;;
17596;SDS011;8917;50.942;6.946;2023-07-24T12:49:18;2.67;;;2.38;;
17596;SDS011;8917;50.942;6.946;2023-07-24T12:51:46;4.10;;;2.28;;
17596;SDS011;8917;50.942;6.946;2023-07-24T12:54:13;2.80;;;2.50;;
17596;SDS011;8917;50.942;6.946;2023-07-24T12:56:40;2.60;;;2.33;;
17596;SDS011;8917;50.942;6.946;2023-07-24T12:59:08;4.05;;;2.25;;
17596;SDS011;8917;50.942;6.946;2023-07-24T13:01:35;3.17;;;2.38;;
17596;SDS011;8917;50.942;6.946;2023-07-24T13:04:04;4.00;;;2.40;;
17596;SDS011;8917;50.942;6.946;2023-07-24T13:06:31;3.17;;;2.30;;
17596;SDS011;8917;50.942;6.946;2023-07-24T13:08:58;4.45;;;2.47;;
17596;SDS011;8917;50.942;6.946;2023-07-24T13:11:26;5.82;;;2.67;;
17596;SDS011;8917;50.942;6.946;2023-07-24T13:13:53;4.47;;;2.58;;
17596;SDS011;8917;50.942;6.946;2023-07-24T13:16:21;2.30;;;2.10;;
17596;SDS011;8917;50.942;6.946;2023-07-24T13:18:49;3.08;;;2.35;;
17596;SDS011;8917;50.942;6.946;2023-07-24T13:21:17;2.97;;;2.40;;
17596;SDS011;8917;50.942;6.946;2023-07-24T13:23:45;4.03;;;2.70;;
17596;SDS011;8917;50.942;6.946;2023-07-24T13:26:12;2.65;;;2.33;;
17596;SDS011;8917;50.942;6.946;2023-07-24T13:28:40;2.40;;;2.20;;
17596;SDS011;8917;50.942;6.946;2023-07-24T13:31:10;4.05;;;2.05;;
17596;SDS011;8917;50.942;6.946;2023-07-24T13:33:38;3.00;;;2.05;;
17596;SDS011;8917;50.942;6.946;2023-07-24T13:36:05;2.45;;;2.10;;
17596;SDS011;8917;50.942;6.946;2023-07-24T13:38:35;2.92;;;2.40;;
17596;SDS011;8917;50.942;6.946;2023-07-24T13:41:02;4.50;;;2.80;;
17596;SDS011;8917;50.942;6.946;2023-07-24T13:43:30;2.90;;;2.20;;
17596;SDS011;8917;50.942;6.946;2023-07-24T13:45:57;4.18;;;3.78;;
17596;SDS011;8917;50.942;6.946;2023-07-24T13:48:26;3.17;;;2.50;;
17596;SDS011;8917;50.942;6.946;2023-07-24T13:50:54;2.17;;;1.80;;
17596;SDS011;8917;50.942;6.946;2023-07-24T13:53:21;2.13;;;1.80;;
17596;SDS011;8917;50.942;6.946;2023-07-24T13:55:50;3.20;;;2.20;;
17596;SDS011;8917;50.942;6.946;2023-07-24T13:58:18;2.45;;;2.00;;
17596;SDS011;8917;50.942;6.946;2023-07-24T14:00:45;2.42;;;2.22;;
17596;SDS011;8917;50.942;6.946;2023-07-24T14:03:12;4.00;;;2.05;;
17596;SDS011;8917;50.942;6.946;2023-07-24T14:05:39;3.17;;;1.98;;
17596;SDS011;8917;50.942;6.946;2023-07-24T14:08:07;6.07;;;2.38;;
17596;SDS011;8917;50.942;6.946;2023-07-24T14:10:34;2.67;;;2.20;;
17596;SDS011;8917;50.942;6.946;2023-07-24T14:13:02;3.10;;;2.20;;
17596;SDS011;8917;50.942;6.946;2023-07-24T14:15:30;2.53;;;1.98;;
17596;SDS011;8917;50.942;6.946;2023-07-24T14:17:57;3.50;;;2.50;;
17596;SDS011;8917;50.942;6.946;2023-07-24T14:20:24;2.70;;;2.28;;
17596;SDS011;8917;50.942;6.946;2023-07-24T14:22:51;5.05;;;2.35;;
17596;SDS011;8917;50.942;6.946;2023-07-24T14:25:19;3.83;;;3.03;;
17596;SDS011;8917;50.942;6.946;2023-07-24T14:27:46;4.15;;;3.28;;
17596;SDS011;8917;50.942;6.946;2023-07-24T14:30:15;2.38;;;1.73;;
17596;SDS011;8917;50.942;6.946;2023-07-24T14:32:42;5.78;;;1.70;;
17596;SDS011;8917;50.942;6.946;2023-07-24T14:35:10;1.75;;;1.40;;
17596;SDS011;8917;50.942;6.946;2023-07-24T14:37:37;1.35;;;1.25;;
17596;SDS011;8917;50.942;6.946;2023-07-24T14:40:05;1.60;;;1.38;;
17596;SDS011;8917;50.942;6.946;2023-07-24T14:42:32;1.70;;;1.35;;
17596;SDS011;8917;50.942;6.946;2023-07-24T14:44:59;2.33;;;1.70;;
17596;SDS011;8917;50.942;6.946;2023-07-24T14:47:29;2.22;;;1.80;;
17596;SDS011;8917;50.942;6.946;2023-07-24T14:49:57;1.80;;;1.60;;
17596;SDS011;8917;50.942;6.946;2023-07-24T14:52:24;3.22;;;1.52;;
17596;SDS011;8917;50.942;6.946;2023-07-24T14:54:52;3.20;;;1.77;;
17596;SDS011;8917;50.942;6.946;2023-07-24T14:57:19;1.85;;;1.55;;
17596;SDS011;8917;50.942;6.946;2023-07-24T14:59:47;2.38;;;1.80;;
17596;SDS011;8917;50.942;6.946;2023-07-24T15:02:14;2.08;;;1.90;;
17596;SDS011;8917;50.942;6.946;2023-07-24T15:04:43;2.30;;;1.73;;